Share

Nassau, Bahamas

6:29 AM EDT on April 24, 2014 (GMT -0400)
Nassau International (MYNN) Elev 23 ft | 25.04 °N, 77.47 °W | Change Station

Current weather conditions updated 29 minutes ago

Mostly Cloudy
Mostly Cloudy
72 °F
Feels Like 72 °F
N
0
Wind Variable Wind from North
Sunrise 6:39 AM
Sunset 7:36 PM
Moon Waning Crescent

Today is forecast to be Much Cooler than yesterday.

Pressure 29.97 in
Visibility 6.2 miles
Clouds Few 1800 ft
Mostly Cloudy 3000 ft
Dew Point 66 °F
Humidity 83%
Rainfall 0.00 in
Snow Depth Not available.
UV 0 out of 16
Pollen Not available.
Air Quality Not available.
Flu Activity Not available.
METAR MYNN 241000Z 00000KT 9999 FEW018 BKN030 22/19 A2997

More Conditions Fewer Conditions

Pressure 29.97 in
Visibility 6.2 miles
Clouds Few 1800 ft
Mostly Cloudy 3000 ft
Dew Point 66 °F
Humidity 83%
Rainfall 0.00 in
Snow Depth Not available.
UV 0 out of 16
Pollen Not available.
Air Quality Not available.
Flu Activity Not available.
METAR MYNN 241000Z 00000KT 9999 FEW018 BKN030 22/19 A2997

More Conditions Fewer Conditions

10-Day Weather Forecast

Almanac

Astronomy

Apr. 24, 2014 Rise Set
Actual Time 6:39 AM EDT 7:36 PM EDT
Civil Twilight 6:15 AM EDT 8:00 PM EDT
Nautical Twilight 5:47 AM EDT 8:28 PM EDT
Astronomical Twilight 5:19 AM EDT 8:57 PM EDT
Moon 3:17 AM EDT 3:18 PM EDT
Length of Visible Light 13h 44m
Length of Day
12h 57m
Tomorrow will be 1m 19s longer.
Waning Crescent, 27% of the Moon is Illuminated
Today
Waning Crescent
Apr 29
New
May 6
First Quarter
May 14
Full
May 21
Last Quarter

Yesterday's Extremes

Country Highs Country Lows

Community

  • Stacked
    Stacked
  • clouds approaching Red Sox Nation
    clouds approaching Red Sox Nation
  • Balance
    Balance
  • Nestled In
    Nestled In
  • Stunning Sunrise
    Stunning Sunrise

WunderPhotos

Upload Photos

1,704,578 photos uploaded!

WunderBlogs® & News

Nearby

Snow Depth

Not available.

Coastal Water Temperatures

Place Temperature
No Stations Reporting

Earthquake Activity

City Distance Mag. Time & Date
No recent earthquake activity has been reported nearby.
Minimum magnitude displayed is 2.5.

Nearby Weather Stations

Station Location Temp. Heat Index Dew Point Humidity Wind Precip. Elev Updated Type
Wild Tamarind, Nassau 68.2 °F - 67 °F 97% East  at  0.0 mph 0.00 in / hr 49 ft 6:20 AM EDT Normal
Sans Souci, Nassau 74.6 °F 74 °F 71 °F 87% East  at  0.0 mph 0.00 in / hr 0 ft 6:20 AM EDT Normal

Show More Stations Show Fewer Stations

What do you think?

We're not finished. Please let us know what you like, what you don't like, and what you are still missing.